createdAt,value
2019-02-06T00:00:36.542Z,0
2019-02-06T00:01:47.295Z,0
2019-02-06T00:02:58.140Z,0
2019-02-06T00:04:08.797Z,0
2019-02-06T00:05:25.792Z,0
2019-02-06T00:06:36.021Z,0
2019-02-06T00:07:46.421Z,0
2019-02-06T00:08:56.708Z,0
2019-02-06T00:10:06.850Z,0
2019-02-06T00:11:16.898Z,0
2019-02-06T00:12:27.116Z,0
2019-02-06T00:13:37.353Z,0
2019-02-06T00:14:47.603Z,0
2019-02-06T00:15:57.832Z,0
2019-02-06T00:17:08.068Z,0
2019-02-06T00:18:18.039Z,0
2019-02-06T00:19:28.250Z,0
2019-02-06T00:20:38.363Z,0
2019-02-06T00:21:48.435Z,0
2019-02-06T00:22:58.278Z,0
2019-02-06T00:24:08.375Z,0
2019-02-06T00:25:18.460Z,0
2019-02-06T00:26:28.290Z,0
2019-02-06T00:27:38.388Z,0
2019-02-06T00:28:48.217Z,0
2019-02-06T00:29:57.781Z,0
2019-02-06T00:31:07.741Z,0
2019-02-06T00:32:17.549Z,0
2019-02-06T00:33:27.616Z,0
2019-02-06T00:34:37.446Z,0
2019-02-06T00:35:47.279Z,0
2019-02-06T00:36:57.392Z,0
2019-02-06T00:38:10.347Z,0
2019-02-06T00:39:20.429Z,0
2019-02-06T00:40:30.494Z,0
2019-02-06T00:41:40.042Z,0
2019-02-06T00:42:50.128Z,0
2019-02-06T00:43:59.716Z,0
2019-02-06T00:45:09.527Z,0
2019-02-06T00:46:19.608Z,0
2019-02-06T00:47:29.678Z,0
2019-02-06T00:48:39.838Z,0
2019-02-06T00:49:49.910Z,0
2019-02-06T00:50:59.981Z,0
2019-02-06T00:52:10.069Z,0
2019-02-06T00:53:20.124Z,0
2019-02-06T00:54:29.732Z,0
2019-02-06T00:55:39.933Z,0
2019-02-06T00:56:49.776Z,0
2019-02-06T00:57:59.848Z,0
2019-02-06T00:59:09.916Z,0
2019-02-06T01:00:20.785Z,0
2019-02-06T01:01:30.861Z,0
2019-02-06T01:02:40.942Z,0
2019-02-06T01:03:51.027Z,0
2019-02-06T01:05:01.131Z,0
2019-02-06T01:06:11.268Z,0
2019-02-06T01:07:21.080Z,0
2019-02-06T01:08:31.508Z,0
2019-02-06T01:09:41.751Z,0
2019-02-06T01:10:52.181Z,0
2019-02-06T01:12:02.607Z,0
2019-02-06T01:13:13.588Z,0
2019-02-06T01:14:24.181Z,0
2019-02-06T01:15:35.081Z,0
2019-02-06T01:16:45.946Z,0
2019-02-06T01:17:56.716Z,0
2019-02-06T01:19:07.048Z,0
2019-02-06T01:20:17.065Z,0
2019-02-06T01:21:26.930Z,0
2019-02-06T01:22:37.118Z,0
2019-02-06T01:23:47.242Z,0
2019-02-06T01:24:57.058Z,0
2019-02-06T01:26:07.150Z,0
2019-02-06T01:27:17.223Z,0
2019-02-06T01:28:27.297Z,0
2019-02-06T01:29:37.437Z,0
2019-02-06T01:30:47.504Z,0
2019-02-06T01:31:57.324Z,0
2019-02-06T01:33:08.392Z,0
2019-02-06T01:34:18.471Z,0
2019-02-06T01:35:28.030Z,0
2019-02-06T01:36:37.846Z,0
2019-02-06T01:37:47.950Z,0
2019-02-06T01:38:58.145Z,0
2019-02-06T01:40:07.971Z,0
2019-02-06T01:41:18.116Z,0
2019-02-06T01:42:28.196Z,0
2019-02-06T01:43:37.994Z,0
2019-02-06T01:44:47.676Z,0
2019-02-06T01:45:57.504Z,0
2019-02-06T01:47:07.677Z,0
2019-02-06T01:48:17.766Z,0
2019-02-06T01:49:27.573Z,0
2019-02-06T01:50:37.385Z,0
2019-02-06T01:51:47.480Z,0
2019-02-06T01:52:57.721Z,0
2019-02-06T01:54:07.634Z,0
2019-02-06T01:55:17.730Z,0
2019-02-06T01:56:27.812Z,0
2019-02-06T01:57:37.873Z,0
2019-02-06T01:58:47.960Z,0
2019-02-06T01:59:57.783Z,0
2019-02-06T02:01:08.508Z,0
2019-02-06T02:02:18.122Z,0
2019-02-06T02:03:28.190Z,0
2019-02-06T02:04:38.269Z,0
2019-02-06T02:05:48.346Z,0
2019-02-06T02:06:58.422Z,0
2019-02-06T02:08:08.499Z,0
2019-02-06T02:09:18.321Z,0
2019-02-06T02:10:27.957Z,0
2019-02-06T02:11:38.013Z,0
2019-02-06T02:12:48.097Z,0
2019-02-06T02:13:57.947Z,0
2019-02-06T02:15:09.387Z,0
2019-02-06T02:16:19.462Z,0
2019-02-06T02:17:29.282Z,0
2019-02-06T02:18:39.134Z,0
2019-02-06T02:19:48.944Z,0
2019-02-06T02:20:58.749Z,0
2019-02-06T02:22:08.887Z,0
2019-02-06T02:23:18.492Z,0
2019-02-06T02:24:28.552Z,0
2019-02-06T02:25:38.377Z,0
2019-02-06T02:26:48.441Z,0
2019-02-06T02:27:58.505Z,0
2019-02-06T02:29:08.591Z,0
2019-02-06T02:30:18.844Z,0
2019-02-06T02:31:29.538Z,0
2019-02-06T02:32:41.656Z,0
2019-02-06T02:33:52.293Z,0
2019-02-06T02:35:02.737Z,0
2019-02-06T02:36:24.871Z,0
2019-02-06T02:37:34.933Z,0
2019-02-06T02:38:45.005Z,0
2019-02-06T02:39:54.815Z,0
2019-02-06T02:41:04.895Z,0
2019-02-06T02:42:14.735Z,0
2019-02-06T02:43:24.821Z,0
2019-02-06T02:44:34.878Z,0
2019-02-06T02:45:44.636Z,0
2019-02-06T02:46:54.727Z,0
2019-02-06T02:48:04.811Z,0
2019-02-06T02:49:14.400Z,0
2019-02-06T02:50:24.272Z,0
2019-02-06T02:51:34.240Z,0
2019-02-06T02:52:44.066Z,0
2019-02-06T02:53:54.150Z,0
2019-02-06T02:55:04.436Z,0
2019-02-06T02:56:14.268Z,0
2019-02-06T02:57:24.095Z,0
2019-02-06T02:58:34.189Z,0
2019-02-06T02:59:44.265Z,0
2019-02-06T03:00:54.343Z,0
2019-02-06T03:02:04.267Z,0
2019-02-06T03:34:34.680Z,0
2019-02-06T03:35:44.788Z,0
2019-02-06T03:36:54.580Z,0
2019-02-06T03:38:05.027Z,0
2019-02-06T03:39:15.129Z,0
2019-02-06T03:40:25.185Z,0
2019-02-06T03:41:35.260Z,0
2019-02-06T03:42:45.099Z,0
2019-02-06T03:43:55.169Z,0
2019-02-06T03:45:05.335Z,0
2019-02-06T03:46:16.128Z,0
2019-02-06T03:47:26.559Z,0
2019-02-06T03:48:37.498Z,0
2019-02-06T03:49:50.590Z,0
2019-02-06T03:51:01.236Z,0
2019-02-06T03:52:11.940Z,0
2019-02-06T03:53:22.277Z,0
2019-02-06T03:54:32.389Z,0
2019-02-06T03:55:42.581Z,0
2019-02-06T03:56:52.655Z,0
2019-02-06T03:58:02.465Z,0
2019-02-06T03:59:12.018Z,0
2019-02-06T04:00:22.712Z,0
2019-02-06T04:01:32.784Z,0
2019-02-06T04:02:42.863Z,0
2019-02-06T04:03:52.939Z,0
2019-02-06T04:05:03.022Z,0
2019-02-06T04:06:13.114Z,0
2019-02-06T04:07:23.248Z,0
2019-02-06T04:08:33.328Z,0
2019-02-06T04:09:43.433Z,0
2019-02-06T04:10:53.508Z,0
2019-02-06T04:12:03.687Z,0
2019-02-06T04:13:13.757Z,0
2019-02-06T04:14:23.842Z,0
2019-02-06T04:15:34.015Z,0
2019-02-06T04:16:43.842Z,0
2019-02-06T04:17:56.992Z,0
2019-02-06T04:19:06.792Z,0
2019-02-06T04:20:16.858Z,0
2019-02-06T04:21:26.914Z,0
2019-02-06T04:22:36.751Z,0
2019-02-06T04:23:46.565Z,0
2019-02-06T04:24:58.979Z,0
2019-02-06T04:26:08.805Z,0
2019-02-06T04:27:18.918Z,0
2019-02-06T04:28:28.991Z,0
2019-02-06T04:29:39.069Z,0
2019-02-06T04:30:48.901Z,0
2019-02-06T04:31:58.977Z,0
2019-02-06T04:33:08.868Z,0
2019-02-06T04:34:18.513Z,0
2019-02-06T04:35:28.615Z,0
2019-02-06T04:36:38.702Z,0
2019-02-06T04:37:48.903Z,0
2019-02-06T04:38:58.729Z,0
2019-02-06T04:40:08.799Z,0
2019-02-06T04:41:18.617Z,0
2019-02-06T04:42:28.723Z,0
2019-02-06T04:43:39.026Z,0
2019-02-06T04:44:49.090Z,0
2019-02-06T04:45:59.250Z,0
2019-02-06T04:47:09.068Z,0
2019-02-06T04:48:19.144Z,0
2019-02-06T04:49:29.224Z,0
2019-02-06T04:50:39.349Z,0
2019-02-06T04:51:49.753Z,0
2019-02-06T04:53:00.342Z,0
2019-02-06T04:54:11.032Z,0
2019-02-06T04:55:22.105Z,0
2019-02-06T04:56:33.167Z,0
2019-02-06T04:57:43.942Z,0
2019-02-06T04:58:54.799Z,0
2019-02-06T05:00:06.349Z,0
2019-02-06T05:01:16.714Z,0
2019-02-06T05:02:26.536Z,0
2019-02-06T05:03:36.639Z,0
2019-02-06T05:04:46.733Z,0
2019-02-06T05:05:56.810Z,0
2019-02-06T05:07:18.170Z,0
2019-02-06T05:08:28.844Z,0
2019-02-06T05:09:38.909Z,0
2019-02-06T05:10:48.981Z,0
2019-02-06T05:11:58.804Z,0
2019-02-06T05:13:08.601Z,0
2019-02-06T05:14:18.673Z,0
2019-02-06T05:15:28.774Z,0
2019-02-06T05:16:38.830Z,0
2019-02-06T05:17:48.707Z,0
2019-02-06T05:18:59.006Z,0
2019-02-06T05:20:08.836Z,0
2019-02-06T05:21:18.906Z,0
2019-02-06T05:22:28.738Z,0
2019-02-06T05:23:38.804Z,0
2019-02-06T05:24:48.891Z,0
2019-02-06T05:25:58.849Z,0
2019-02-06T05:27:08.941Z,0
2019-02-06T05:28:20.713Z,0
2019-02-06T05:29:30.571Z,0
2019-02-06T05:30:40.672Z,0
2019-02-06T05:31:50.753Z,0
2019-02-06T05:33:01.145Z,0
2019-02-06T05:34:10.976Z,0
2019-02-06T05:35:21.076Z,0
2019-02-06T05:36:30.886Z,0
2019-02-06T05:37:42.143Z,0
2019-02-06T05:38:52.256Z,0
2019-02-06T05:40:02.075Z,0
2019-02-06T05:41:11.919Z,0
2019-02-06T05:42:22.028Z,0
2019-02-06T05:43:31.916Z,0
2019-02-06T05:44:42.012Z,0
2019-02-06T05:45:52.127Z,0
2019-02-06T05:47:02.234Z,0
2019-02-06T05:48:12.327Z,0
2019-02-06T05:49:22.450Z,0
2019-02-06T05:50:32.548Z,0
2019-02-06T05:51:42.491Z,0
2019-02-06T05:52:52.329Z,0
2019-02-06T05:54:02.326Z,0
2019-02-06T05:55:14.470Z,0
2019-02-06T05:56:24.933Z,0
2019-02-06T05:57:34.794Z,0
2019-02-06T05:58:45.568Z,0
2019-02-06T05:59:56.830Z,0
2019-02-06T06:01:07.843Z,0
2019-02-06T06:02:18.760Z,0
2019-02-06T06:03:29.489Z,0
2019-02-06T06:04:39.955Z,0
2019-02-06T06:05:50.579Z,0
2019-02-06T06:07:00.898Z,0
2019-02-06T06:08:11.012Z,0
2019-02-06T06:09:20.833Z,0
2019-02-06T06:10:30.938Z,0
2019-02-06T06:11:40.506Z,0
2019-02-06T06:12:50.656Z,0
2019-02-06T06:14:01.115Z,0
2019-02-06T06:15:10.941Z,5
2019-02-06T06:16:20.786Z,5
2019-02-06T06:17:30.885Z,5
2019-02-06T06:18:40.711Z,5
2019-02-06T06:19:50.800Z,5
2019-02-06T06:21:01.133Z,5
2019-02-06T06:22:10.949Z,5
2019-02-06T06:23:21.016Z,10
2019-02-06T06:24:31.206Z,10
2019-02-06T06:25:41.294Z,10
2019-02-06T06:26:51.377Z,10
2019-02-06T06:28:02.312Z,10
2019-02-06T06:29:12.405Z,15
2019-02-06T06:30:22.605Z,15
2019-02-06T06:31:32.440Z,15
2019-02-06T06:32:42.557Z,15
2019-02-06T06:33:52.370Z,20
2019-02-06T06:35:02.607Z,20
2019-02-06T06:36:12.678Z,20
2019-02-06T06:37:22.776Z,20
2019-02-06T06:38:32.590Z,25
2019-02-06T06:39:42.685Z,25
2019-02-06T06:40:52.510Z,25
2019-02-06T06:42:02.666Z,25
2019-02-06T06:43:15.953Z,30
2019-02-06T06:44:26.357Z,30
2019-02-06T06:45:36.178Z,30
2019-02-06T06:46:46.241Z,35
2019-02-06T06:47:56.353Z,30
2019-02-06T06:49:06.425Z,35
2019-02-06T06:50:16.508Z,35
2019-02-06T06:51:26.594Z,35
2019-02-06T06:52:36.410Z,35
2019-02-06T06:53:46.586Z,40
2019-02-06T06:54:56.655Z,40
2019-02-06T06:56:06.463Z,45
2019-02-06T06:57:19.695Z,45
2019-02-06T06:58:29.786Z,45
2019-02-06T06:59:40.005Z,45
2019-02-06T07:00:50.191Z,50
2019-02-06T07:02:00.368Z,50
2019-02-06T07:03:10.182Z,50
2019-02-06T07:04:20.243Z,50
2019-02-06T07:05:30.501Z,55
2019-02-06T07:06:40.615Z,55
2019-02-06T07:07:50.780Z,55
2019-02-06T07:09:01.314Z,60
2019-02-06T07:10:14.913Z,60
2019-02-06T07:11:25.942Z,60
2019-02-06T07:12:36.352Z,60
2019-02-06T07:13:47.193Z,60
2019-02-06T07:14:57.514Z,60
2019-02-06T07:16:10.092Z,60
2019-02-06T07:17:20.202Z,60
2019-02-06T07:18:30.290Z,60
2019-02-06T07:19:40.361Z,60
2019-02-06T07:20:50.436Z,60
2019-02-06T07:22:00.269Z,60
2019-02-06T07:23:10.482Z,60
2019-02-06T07:24:20.574Z,65
2019-02-06T07:25:30.403Z,65
2019-02-06T07:26:40.516Z,75
2019-02-06T07:27:50.632Z,75
2019-02-06T07:29:02.251Z,80
2019-02-06T07:30:12.320Z,85
2019-02-06T07:31:22.156Z,75
2019-02-06T07:32:32.366Z,75
2019-02-06T07:33:42.551Z,90
2019-02-06T07:34:52.390Z,95
2019-02-06T07:36:02.896Z,80
2019-02-06T07:37:12.987Z,85
2019-02-06T07:38:33.966Z,85
2019-02-06T07:39:44.055Z,100
2019-02-06T07:40:54.134Z,100
2019-02-06T07:42:03.721Z,100
2019-02-06T07:43:13.793Z,100
2019-02-06T07:44:23.616Z,105
2019-02-06T07:45:33.677Z,95
2019-02-06T07:46:43.762Z,90
2019-02-06T07:47:53.855Z,100
2019-02-06T07:49:03.947Z,105
2019-02-06T07:50:14.061Z,100
2019-02-06T07:51:24.128Z,90
2019-02-06T07:52:34.210Z,85
2019-02-06T07:53:44.316Z,85
2019-02-06T07:54:54.123Z,85
2019-02-06T07:56:04.245Z,85
2019-02-06T07:57:14.332Z,85
2019-02-06T07:58:24.426Z,85
2019-02-06T07:59:34.519Z,85
2019-02-06T08:00:44.630Z,85
2019-02-06T08:01:54.715Z,85
2019-02-06T08:03:04.579Z,85
2019-02-06T08:04:14.670Z,85
2019-02-06T08:05:24.744Z,85
2019-02-06T08:06:35.228Z,85
2019-02-06T08:07:45.883Z,85
2019-02-06T08:08:56.986Z,90
2019-02-06T08:10:07.705Z,90
2019-02-06T08:11:18.539Z,90
2019-02-06T08:12:29.537Z,90
2019-02-06T08:13:39.950Z,95
2019-02-06T08:14:50.542Z,95
2019-02-06T08:16:01.561Z,100
2019-02-06T08:17:11.642Z,100
2019-02-06T08:18:21.593Z,100
2019-02-06T08:19:31.671Z,105
2019-02-06T08:20:41.761Z,105
2019-02-06T08:21:54.682Z,105
2019-02-06T08:23:04.763Z,100
2019-02-06T08:24:14.628Z,100
2019-02-06T08:25:24.717Z,100
2019-02-06T08:26:34.577Z,100
2019-02-06T08:27:44.406Z,100
2019-02-06T08:28:54.496Z,100
2019-02-06T08:30:04.346Z,100
2019-02-06T08:31:14.181Z,105
2019-02-06T08:32:24.241Z,105
2019-02-06T08:33:34.066Z,105
2019-02-06T08:34:44.174Z,105
2019-02-06T08:35:54.276Z,110
2019-02-06T08:37:04.372Z,115
2019-02-06T08:38:14.470Z,115
2019-02-06T08:39:24.541Z,115
2019-02-06T08:40:34.618Z,125
2019-02-06T08:41:44.721Z,120
2019-02-06T08:42:54.937Z,115
2019-02-06T08:44:06.799Z,115
2019-02-06T08:45:16.920Z,115
2019-02-06T08:46:26.780Z,125
2019-02-06T08:47:36.643Z,115
2019-02-06T08:48:46.721Z,115
2019-02-06T08:49:56.799Z,120
2019-02-06T08:51:06.881Z,115
2019-02-06T08:52:16.750Z,115
2019-02-06T08:53:26.839Z,115
2019-02-06T08:54:36.929Z,115
2019-02-06T08:55:47.046Z,115
2019-02-06T08:56:56.869Z,115
2019-02-06T08:58:07.029Z,115
2019-02-06T08:59:17.116Z,115
2019-02-06T09:00:27.143Z,120
2019-02-06T09:01:36.962Z,115
2019-02-06T09:02:46.782Z,115
2019-02-06T09:03:56.839Z,115
2019-02-06T09:05:10.025Z,115
2019-02-06T09:06:19.598Z,120
2019-02-06T09:07:29.685Z,120
2019-02-06T09:08:39.764Z,120
2019-02-06T09:09:50.978Z,115
2019-02-06T09:11:01.240Z,115
2019-02-06T09:12:11.850Z,115
2019-02-06T09:13:21.936Z,115
2019-02-06T09:14:32.761Z,115
2019-02-06T09:15:43.676Z,115
2019-02-06T09:16:54.205Z,115
2019-02-06T09:18:04.872Z,115
2019-02-06T09:19:15.427Z,115
2019-02-06T09:20:25.367Z,115
2019-02-06T09:21:35.652Z,115
2019-02-06T09:22:45.912Z,115
2019-02-06T09:23:56.207Z,120
2019-02-06T09:25:06.287Z,115
2019-02-06T09:26:16.471Z,115
2019-02-06T09:27:26.572Z,115
2019-02-06T09:28:39.779Z,115
2019-02-06T09:29:49.875Z,115
2019-02-06T09:30:59.956Z,115
2019-02-06T09:32:10.044Z,115
2019-02-06T09:33:20.102Z,115
2019-02-06T09:34:30.165Z,120
2019-02-06T09:35:40.091Z,120
2019-02-06T09:36:50.176Z,120
2019-02-06T09:38:02.169Z,125
2019-02-06T09:39:21.295Z,125
2019-02-06T09:40:31.385Z,125
2019-02-06T09:41:41.503Z,125
2019-02-06T09:42:51.581Z,125
2019-02-06T09:44:01.690Z,125
2019-02-06T09:45:11.793Z,125
2019-02-06T09:46:21.633Z,125
2019-02-06T09:47:31.467Z,125
2019-02-06T09:48:41.541Z,125
2019-02-06T09:49:54.673Z,125
2019-02-06T09:51:04.500Z,125
2019-02-06T09:52:14.587Z,130
2019-02-06T09:53:24.490Z,130
2019-02-06T09:54:34.598Z,135
2019-02-06T09:55:44.697Z,135
2019-02-06T09:56:57.912Z,135
2019-02-06T09:58:08.845Z,140
2019-02-06T09:59:18.964Z,140
2019-02-06T10:00:29.156Z,145
2019-02-06T10:01:39.229Z,145
2019-02-06T10:02:49.293Z,145
2019-02-06T10:03:59.523Z,145
2019-02-06T10:05:10.612Z,145
2019-02-06T10:06:21.316Z,145
2019-02-06T10:07:32.084Z,145
2019-02-06T10:08:42.872Z,145
2019-02-06T10:09:53.508Z,145
2019-02-06T10:11:04.353Z,145
2019-02-06T10:12:16.964Z,145
2019-02-06T10:13:27.240Z,145
2019-02-06T10:14:37.431Z,150
2019-02-06T10:15:47.623Z,145
2019-02-06T10:16:57.711Z,145
2019-02-06T10:18:08.438Z,150
2019-02-06T10:19:18.292Z,150
2019-02-06T10:20:28.388Z,150
2019-02-06T10:21:38.497Z,150
2019-02-06T10:22:48.624Z,150
2019-02-06T10:23:58.447Z,150
2019-02-06T10:25:08.543Z,150
2019-02-06T10:26:18.628Z,145
2019-02-06T10:27:31.429Z,145
2019-02-06T10:28:41.596Z,145
2019-02-06T10:29:50.925Z,150
2019-02-06T10:31:01.035Z,150
2019-02-06T10:32:11.156Z,150
2019-02-06T10:33:23.677Z,145
2019-02-06T10:34:33.761Z,145
2019-02-06T10:35:43.852Z,150
2019-02-06T10:36:53.658Z,150
2019-02-06T10:38:03.737Z,150
2019-02-06T10:39:13.570Z,150
2019-02-06T10:40:23.785Z,150
2019-02-06T10:41:33.636Z,150
2019-02-06T10:42:43.722Z,155
2019-02-06T10:43:53.568Z,155
2019-02-06T10:45:03.391Z,155
2019-02-06T10:46:13.473Z,150
2019-02-06T10:47:23.341Z,155
2019-02-06T10:48:33.456Z,155
2019-02-06T10:49:43.018Z,155
2019-02-06T10:50:52.835Z,155
2019-02-06T10:52:04.394Z,155
2019-02-06T10:53:14.287Z,155
2019-02-06T10:54:24.479Z,150
2019-02-06T10:55:34.566Z,155
2019-02-06T10:56:44.376Z,155
2019-02-06T10:57:53.989Z,155
2019-02-06T10:59:03.806Z,155
2019-02-06T11:00:14.406Z,155
2019-02-06T11:01:24.489Z,155
2019-02-06T11:02:37.137Z,155
2019-02-06T11:03:47.027Z,155
2019-02-06T11:04:56.854Z,155
2019-02-06T11:06:06.926Z,155
2019-02-06T11:07:18.020Z,155
2019-02-06T11:08:28.180Z,150
2019-02-06T11:09:48.812Z,150
2019-02-06T11:10:58.926Z,150
2019-02-06T11:12:08.699Z,155
2019-02-06T11:13:18.959Z,150
2019-02-06T11:14:28.911Z,145
2019-02-06T11:15:39.124Z,145
2019-02-06T11:16:49.223Z,145
2019-02-06T11:17:59.295Z,145
2019-02-06T11:19:09.419Z,150
2019-02-06T11:20:19.515Z,150
2019-02-06T11:21:29.586Z,150
2019-02-06T11:22:39.687Z,145
2019-02-06T11:23:49.785Z,145
2019-02-06T11:24:59.987Z,140
2019-02-06T11:26:10.068Z,140
2019-02-06T11:27:19.903Z,140
2019-02-06T11:28:29.725Z,140
2019-02-06T11:29:39.554Z,140
2019-02-06T11:30:49.648Z,140
2019-02-06T11:31:59.258Z,135
2019-02-06T11:33:09.327Z,130
2019-02-06T11:34:19.146Z,130
2019-02-06T11:35:29.462Z,125
2019-02-06T11:36:39.281Z,125
2019-02-06T11:37:49.118Z,130
2019-02-06T11:38:59.265Z,125
2019-02-06T11:40:09.347Z,115
2019-02-06T11:41:19.204Z,110
2019-02-06T11:42:28.781Z,105
2019-02-06T11:43:41.896Z,110
2019-02-06T11:44:51.996Z,105
2019-02-06T11:46:02.088Z,100
2019-02-06T11:47:12.156Z,95
2019-02-06T11:48:21.990Z,95
2019-02-06T11:49:32.134Z,90
2019-02-06T11:50:41.977Z,90
2019-02-06T11:51:51.826Z,90
2019-02-06T11:53:01.945Z,90
2019-02-06T11:54:12.080Z,95
2019-02-06T11:55:22.184Z,185
2019-02-06T11:56:32.263Z,180
2019-02-06T11:57:42.350Z,185
2019-02-06T11:58:52.156Z,185
2019-02-06T12:00:03.045Z,190
2019-02-06T12:01:13.145Z,190
2019-02-06T12:02:23.248Z,190
2019-02-06T12:03:33.327Z,190
2019-02-06T12:04:43.416Z,190
2019-02-06T12:05:53.260Z,190
2019-02-06T12:07:03.401Z,190
2019-02-06T12:08:15.120Z,190
2019-02-06T12:09:26.135Z,190
2019-02-06T12:10:36.899Z,190
2019-02-06T12:11:47.700Z,190
2019-02-06T12:12:58.445Z,180
2019-02-06T12:14:09.310Z,185
2019-02-06T12:15:20.118Z,185
2019-02-06T12:16:31.501Z,190
2019-02-06T12:17:41.984Z,190
2019-02-06T12:18:52.366Z,185
2019-02-06T12:20:02.589Z,185
2019-02-06T12:21:12.598Z,185
2019-02-06T12:22:22.290Z,180
2019-02-06T12:23:41.413Z,170
2019-02-06T12:24:51.234Z,170
2019-02-06T12:26:00.812Z,180
2019-02-06T12:27:10.889Z,180
2019-02-06T12:28:20.698Z,140
2019-02-06T12:29:30.549Z,165
2019-02-06T12:30:40.381Z,185
2019-02-06T12:31:50.472Z,190
2019-02-06T12:33:02.238Z,185
2019-02-06T12:34:12.066Z,185
2019-02-06T12:35:21.913Z,185
2019-02-06T12:36:32.028Z,175
2019-02-06T12:37:41.993Z,175
2019-02-06T12:39:02.699Z,175
2019-02-06T12:40:23.566Z,180
2019-02-06T12:41:33.393Z,180
2019-02-06T12:42:43.474Z,185
2019-02-06T12:43:53.576Z,190
2019-02-06T12:45:06.162Z,185
2019-02-06T12:46:15.847Z,190
2019-02-06T12:47:26.835Z,185
2019-02-06T12:48:37.101Z,185
2019-02-06T12:49:47.194Z,185
2019-02-06T12:50:56.764Z,185
2019-02-06T12:52:06.712Z,185
2019-02-06T12:53:16.574Z,175
2019-02-06T12:54:26.671Z,185
2019-02-06T12:55:36.766Z,185
2019-02-06T12:56:46.859Z,180
2019-02-06T12:57:56.705Z,180
2019-02-06T12:59:06.615Z,180
2019-02-06T13:00:17.247Z,185
2019-02-06T13:01:27.202Z,155
2019-02-06T13:02:37.267Z,160
2019-02-06T13:03:47.365Z,175
2019-02-06T13:04:57.501Z,175
2019-02-06T13:06:07.355Z,175
2019-02-06T13:07:17.455Z,170
2019-02-06T13:08:27.563Z,130
2019-02-06T13:09:38.302Z,140
2019-02-06T13:10:49.201Z,170
2019-02-06T13:12:00.150Z,165
2019-02-06T13:13:11.820Z,165
2019-02-06T13:14:22.678Z,170
2019-02-06T13:15:33.413Z,165
2019-02-06T13:16:43.743Z,165
2019-02-06T13:17:54.221Z,165
2019-02-06T13:19:04.021Z,160
2019-02-06T13:20:13.879Z,160
2019-02-06T13:21:23.972Z,160
2019-02-06T13:22:33.804Z,160
2019-02-06T13:23:44.168Z,160
2019-02-06T13:24:54.416Z,160
2019-02-06T13:26:04.491Z,160
2019-02-06T13:27:14.573Z,160
2019-02-06T13:28:24.412Z,155
2019-02-06T13:29:34.496Z,155
2019-02-06T13:30:44.612Z,150
2019-02-06T13:31:54.666Z,150
2019-02-06T13:33:04.757Z,150
2019-02-06T13:34:14.584Z,150
2019-02-06T13:35:24.680Z,150
2019-02-06T13:36:34.744Z,150
2019-02-06T13:37:44.571Z,145
2019-02-06T13:38:54.651Z,145
2019-02-06T13:40:04.757Z,145
2019-02-06T13:41:14.591Z,145
2019-02-06T13:42:24.692Z,145
2019-02-06T13:43:34.540Z,145
2019-02-06T13:44:46.504Z,145
2019-02-06T13:45:56.078Z,145
2019-02-06T13:47:06.159Z,140
2019-02-06T13:48:16.248Z,145
2019-02-06T13:49:26.118Z,140
2019-02-06T13:50:36.210Z,140
2019-02-06T13:51:46.024Z,140
2019-02-06T13:52:56.109Z,135
2019-02-06T13:54:06.214Z,135
2019-02-06T13:55:19.326Z,130
2019-02-06T13:56:29.397Z,130
2019-02-06T13:57:43.478Z,130
2019-02-06T13:58:53.601Z,130
2019-02-06T14:00:04.118Z,130
2019-02-06T14:01:25.078Z,130
2019-02-06T14:02:36.502Z,125
2019-02-06T14:03:47.050Z,125
2019-02-06T14:04:57.861Z,125
2019-02-06T14:06:11.256Z,125
2019-02-06T14:07:21.553Z,125
2019-02-06T14:08:31.627Z,120
2019-02-06T14:09:41.723Z,120
2019-02-06T14:11:06.064Z,120
2019-02-06T14:12:18.446Z,120
2019-02-06T14:13:28.531Z,115
2019-02-06T14:14:38.677Z,115
2019-02-06T14:15:48.780Z,115
2019-02-06T14:16:58.740Z,115
2019-02-06T14:18:08.927Z,115
2019-02-06T14:19:19.024Z,110
2019-02-06T14:20:28.898Z,110
2019-02-06T14:21:38.743Z,110
2019-02-06T14:22:48.560Z,105
2019-02-06T14:23:58.413Z,105
2019-02-06T14:25:08.514Z,100
2019-02-06T14:26:21.595Z,100
2019-02-06T14:27:31.674Z,100
2019-02-06T14:28:52.134Z,100
2019-02-06T14:30:02.566Z,95
2019-02-06T14:31:15.484Z,95
2019-02-06T14:32:26.526Z,95
2019-02-06T14:33:38.640Z,90
2019-02-06T14:34:49.449Z,65
2019-02-06T14:36:00.019Z,65
2019-02-06T14:37:10.488Z,75
2019-02-06T14:38:20.675Z,60
2019-02-06T14:39:30.497Z,60
2019-02-06T14:40:40.579Z,65
2019-02-06T14:41:50.653Z,80
2019-02-06T14:43:00.737Z,65
2019-02-06T14:44:10.813Z,80
2019-02-06T14:45:20.647Z,70
2019-02-06T14:46:30.730Z,75
2019-02-06T14:47:40.803Z,75
2019-02-06T14:48:50.903Z,55
2019-02-06T14:50:01.000Z,55
2019-02-06T14:51:11.344Z,50
2019-02-06T14:52:21.419Z,50
2019-02-06T14:53:31.510Z,45
2019-02-06T14:54:41.348Z,45
2019-02-06T14:55:51.445Z,45
2019-02-06T14:57:01.535Z,45
2019-02-06T14:58:11.367Z,45
2019-02-06T14:59:21.449Z,40
2019-02-06T15:00:31.887Z,45
2019-02-06T15:01:41.973Z,50
2019-02-06T15:02:52.079Z,50
2019-02-06T15:04:02.151Z,50
2019-02-06T15:05:12.108Z,50
2019-02-06T15:06:22.290Z,50
2019-02-06T15:07:32.105Z,40
2019-02-06T15:08:41.994Z,35
2019-02-06T15:09:52.065Z,40
2019-02-06T15:11:02.366Z,35
2019-02-06T15:12:12.481Z,35
2019-02-06T15:13:22.542Z,30
2019-02-06T15:14:32.640Z,30
2019-02-06T15:15:42.768Z,30
2019-02-06T15:16:52.856Z,25
2019-02-06T15:18:02.775Z,25
2019-02-06T15:19:12.870Z,25
2019-02-06T15:20:22.973Z,25
2019-02-06T15:21:33.053Z,25
2019-02-06T15:22:43.152Z,25
2019-02-06T15:23:53.254Z,25
2019-02-06T15:25:03.079Z,25
2019-02-06T15:26:13.788Z,20
2019-02-06T15:27:24.565Z,20
2019-02-06T15:28:35.367Z,20
2019-02-06T15:29:46.461Z,20
2019-02-06T15:30:57.168Z,20
2019-02-06T15:32:09.177Z,15
2019-02-06T15:33:19.516Z,15
2019-02-06T15:34:29.614Z,15
2019-02-06T15:35:39.731Z,15
2019-02-06T15:36:49.792Z,15
2019-02-06T15:37:59.852Z,15
2019-02-06T15:39:11.469Z,15
2019-02-06T15:40:22.768Z,10
2019-02-06T15:41:40.844Z,10
2019-02-06T15:42:53.186Z,10
2019-02-06T15:44:03.041Z,10
2019-02-06T15:45:13.131Z,10
2019-02-06T15:46:23.199Z,10
2019-02-06T15:47:33.344Z,10
2019-02-06T15:48:43.446Z,5
2019-02-06T15:49:56.076Z,5
2019-02-06T15:51:08.525Z,5
2019-02-06T15:52:18.637Z,5
2019-02-06T15:53:28.489Z,5
2019-02-06T15:54:41.424Z,5
2019-02-06T15:55:51.555Z,5
2019-02-06T15:57:01.718Z,5
2019-02-06T15:58:13.980Z,5
2019-02-06T15:59:24.119Z,0
2019-02-06T16:00:33.956Z,0
2019-02-06T16:01:44.051Z,0
2019-02-06T16:02:54.863Z,0
2019-02-06T16:04:05.648Z,0
2019-02-06T16:05:16.541Z,0
2019-02-06T16:06:28.446Z,0
2019-02-06T16:07:39.161Z,0
2019-02-06T16:08:49.508Z,0
2019-02-06T16:09:59.622Z,0
2019-02-06T16:11:09.769Z,0
2019-02-06T16:12:19.993Z,0
2019-02-06T16:13:30.097Z,0
2019-02-06T16:14:40.178Z,0
2019-02-06T16:15:50.265Z,0
2019-02-06T16:17:00.349Z,0
2019-02-06T16:18:10.459Z,0
2019-02-06T16:19:22.282Z,0
2019-02-06T16:20:32.378Z,0
2019-02-06T16:21:52.450Z,0
2019-02-06T16:23:03.023Z,0
2019-02-06T16:24:13.139Z,0
2019-02-06T16:25:23.236Z,0
2019-02-06T16:26:33.346Z,0
2019-02-06T16:27:43.436Z,0
2019-02-06T16:28:53.300Z,0
2019-02-06T16:30:10.020Z,0
2019-02-06T16:31:19.953Z,0
2019-02-06T16:32:30.077Z,0
2019-02-06T16:33:40.169Z,0
2019-02-06T16:34:49.729Z,0
2019-02-06T16:35:59.299Z,0
2019-02-06T16:37:09.136Z,0
2019-02-06T16:38:19.232Z,0
2019-02-06T16:39:29.319Z,0
2019-02-06T16:40:39.448Z,0
2019-02-06T16:42:02.000Z,0
2019-02-06T16:43:12.826Z,0
2019-02-06T16:44:23.824Z,0
2019-02-06T16:45:34.070Z,0
2019-02-06T16:46:44.480Z,0
2019-02-06T16:47:55.667Z,0
2019-02-06T16:51:01.955Z,0
2019-02-06T16:52:11.828Z,0
2019-02-06T16:55:50.670Z,0
2019-02-06T16:57:02.162Z,0
2019-02-06T17:01:31.834Z,0
2019-02-06T17:02:42.546Z,0
2019-02-06T17:03:54.615Z,0
2019-02-06T17:05:05.265Z,0
2019-02-06T17:06:15.359Z,0
2019-02-06T17:07:25.220Z,0
2019-02-06T17:08:35.359Z,0
2019-02-06T17:09:45.518Z,0
2019-02-06T17:10:55.588Z,0
2019-02-06T17:12:13.836Z,0
2019-02-06T17:13:23.952Z,0
2019-02-06T17:14:35.612Z,0
2019-02-06T17:15:45.742Z,0
2019-02-06T17:16:55.857Z,0
2019-02-06T17:18:05.979Z,0
2019-02-06T17:19:16.163Z,0
2019-02-06T17:20:26.365Z,0
2019-02-06T17:21:36.499Z,0
2019-02-06T17:22:46.654Z,0
2019-02-06T17:23:56.780Z,0
2019-02-06T17:25:06.890Z,0
2019-02-06T17:26:17.049Z,0